Time;durP1;ratioP1;P1;durP2;ratioP2;P2;SDS_P1;SDS_P2;PMS_P1;PMS_P2;Temp;Humidity;BMP_temperature;BMP_pressure;BME280_temperature;BME280_humidity;BME280_pressure;Samples;Min_cycle;Max_cycle;Signal;HPM_P1;HPM_P2
2022/09/10 00:01:35;;;;;;;10.77;7.50;;;;;;;24.56;53.99;99518.69;5054427;28;20017;-43
2022/09/10 00:04:02;;;;;;;13.00;7.88;;;;;;;24.48;54.20;99517.47;5073014;28;20039;-44
2022/09/10 00:06:30;;;;;;;9.27;7.90;;;;;;;24.47;54.12;99526.75;5073181;28;20025;-44
2022/09/10 00:08:57;;;;;;;9.40;7.30;;;;;;;24.46;54.22;99513.44;5072897;28;20025;-46
2022/09/10 00:11:30;;;;;;;10.50;7.68;;;;;;;24.48;54.12;99513.94;5073400;28;20029;-47
2022/09/10 00:14:01;;;;;;;8.40;7.53;;;;;;;24.37;54.38;99518.78;5073057;28;20059;-44
2022/09/10 00:16:28;;;;;;;8.52;7.43;;;;;;;23.42;57.27;99517.06;5073567;28;20028;-44
2022/09/10 00:18:55;;;;;;;11.57;7.65;;;;;;;23.04;58.65;99521.66;5072749;28;20087;-37
2022/09/10 00:21:21;;;;;;;9.50;7.55;;;;;;;22.91;58.79;99522.34;5072931;28;20044;-36
2022/09/10 00:23:47;;;;;;;8.88;7.25;;;;;;;22.86;59.63;99520.50;5072711;28;20062;-36
2022/09/10 00:26:20;;;;;;;12.35;7.95;;;;;;;22.81;59.81;99526.00;5072377;28;20078;-36
2022/09/10 00:28:46;;;;;;;8.23;7.38;;;;;;;22.78;59.88;99518.44;5072694;28;20035;-36
2022/09/10 00:31:13;;;;;;;10.75;7.75;;;;;;;22.86;60.10;99535.97;5072325;28;20031;-36
2022/09/10 00:33:40;;;;;;;10.18;7.68;;;;;;;22.86;60.18;99536.78;5072424;28;20020;-37
2022/09/10 00:36:25;;;;;;;13.05;7.68;;;;;;;22.76;60.51;99532.28;5071351;28;20017;-36
2022/09/10 00:38:52;;;;;;;8.98;7.47;;;;;;;22.63;60.70;99538.41;5072649;28;20054;-37
2022/09/10 00:41:21;;;;;;;11.40;8.48;;;;;;;22.73;60.91;99527.44;5072077;28;20059;-37
2022/09/10 00:43:55;;;;;;;14.57;10.32;;;;;;;22.48;61.44;99528.53;5072024;28;20024;-37
2022/09/10 00:46:29;;;;;;;13.38;9.88;;;;;;;22.08;62.83;99527.81;5072294;28;20017;-36
2022/09/10 00:48:57;;;;;;;11.95;10.18;;;;;;;21.70;64.25;99522.16;5072471;28;20020;-36
2022/09/10 00:51:25;;;;;;;14.70;10.48;;;;;;;21.62;64.60;99533.59;5072278;28;20028;-36
2022/09/10 00:53:51;;;;;;;14.40;10.98;;;;;;;21.58;64.75;99544.19;5072141;28;20087;-36
2022/09/10 00:56:17;;;;;;;14.55;10.90;;;;;;;21.69;64.65;99536.00;5072539;28;20017;-36
2022/09/10 00:58:44;;;;;;;13.43;11.02;;;;;;;21.64;64.66;99534.13;5072151;28;20047;-37
2022/09/10 01:01:10;;;;;;;16.50;11.70;;;;;;;21.55;65.38;99544.75;5072152;28;20028;-37
2022/09/10 01:03:37;;;;;;;15.30;10.95;;;;;;;21.57;65.31;99550.69;5071634;28;20039;-36
2022/09/10 01:06:04;;;;;;;14.38;10.57;;;;;;;21.66;65.08;99553.59;5071657;28;20408;-37
2022/09/10 01:08:30;;;;;;;12.35;10.60;;;;;;;21.74;64.70;99541.34;5071583;28;20021;-37
2022/09/10 01:11:05;;;;;;;15.93;10.48;;;;;;;21.94;64.29;99540.41;5071819;28;20032;-37
2022/09/10 01:13:45;;;;;;;14.45;10.95;;;;;;;21.62;65.02;99531.69;5071296;28;20036;-37
2022/09/10 01:16:49;;;;;;;13.80;11.15;;;;;;;21.34;65.88;99514.25;5072140;28;20072;-37
2022/09/10 01:19:45;;;;;;;14.45;10.45;;;;;;;21.66;65.30;99530.03;5028974;28;20131;-37
2022/09/10 01:22:42;;;;;;;11.48;10.27;;;;;;;21.87;64.76;99540.72;5029206;28;20036;-37
2022/09/10 01:25:17;;;;;;;15.75;10.80;;;;;;;21.91;64.45;99539.03;5011120;28;20040;-35
2022/09/10 01:27:56;;;;;;;16.88;10.65;;;;;;;21.93;64.59;99531.44;5071366;28;20035;-35
2022/09/10 01:30:28;;;;;;;14.20;10.88;;;;;;;22.08;63.74;99524.28;5071218;28;20021;-36
2022/09/10 01:33:15;;;;;;;13.38;10.15;;;;;;;22.10;63.98;99536.44;5063122;28;20496;-37
2022/09/10 01:35:52;;;;;;;19.45;10.73;;;;;;;22.17;63.65;99544.25;5050923;28;20052;-37
2022/09/10 01:38:25;;;;;;;14.20;10.32;;;;;;;22.01;64.52;99546.31;5051331;28;20025;-37
2022/09/10 01:40:53;;;;;;;12.40;10.10;;;;;;;22.01;64.52;99541.69;5052157;28;20508;-37
2022/09/10 01:43:19;;;;;;;22.05;17.95;;;;;;;21.97;64.25;99529.81;5052047;28;20036;-35
2022/09/10 01:45:50;;;;;;;22.45;18.73;;;;;;;21.98;64.50;99530.59;5051264;28;20029;-37
2022/09/10 01:48:38;;;;;;;20.30;17.50;;;;;;;21.96;64.76;99530.88;5051880;28;20233;-37
2022/09/10 01:51:33;;;;;;;15.77;11.27;;;;;;;22.10;64.00;99536.44;5051539;28;20481;-37
2022/09/10 01:54:01;;;;;;;14.85;11.02;;;;;;;22.03;64.12;99538.69;5051584;28;20029;-36
2022/09/10 01:56:38;;;;;;;16.27;10.57;;;;;;;22.04;64.26;99543.00;5051421;28;20472;-37
2022/09/10 01:59:28;;;;;;;16.00;10.32;;;;;;;22.12;64.22;99539.69;5051837;28;20021;-36
2022/09/10 02:02:05;;;;;;;13.75;10.32;;;;;;;22.74;61.48;99539.09;5055658;28;20553;-36
2022/09/10 02:04:32;;;;;;;14.93;10.90;;;;;;;23.06;60.34;99533.03;5071354;28;20519;-37
2022/09/10 02:06:58;;;;;;;12.80;11.18;;;;;;;23.10;60.20;99525.13;5070689;28;20476;-37
2022/09/10 02:09:24;;;;;;;16.73;11.50;;;;;;;23.23;59.97;99521.69;5071172;28;20449;-37
2022/09/10 02:11:53;;;;;;;15.73;11.15;;;;;;;23.16;60.13;99507.66;5070989;28;20032;-37
2022/09/10 02:14:20;;;;;;;14.43;10.93;;;;;;;23.09;60.13;99510.72;5070818;28;20020;-38
2022/09/10 02:16:57;;;;;;;14.65;11.55;;;;;;;22.98;60.74;99515.47;5070784;28;20063;-36
2022/09/10 02:19:24;;;;;;;15.68;11.50;;;;;;;22.96;60.56;99525.81;5070846;28;20044;-47
2022/09/10 02:21:51;;;;;;;14.02;11.10;;;;;;;22.89;60.93;99529.97;5071176;28;20039;-47
2022/09/10 02:24:16;;;;;;;16.83;11.48;;;;;;;22.80;60.84;99533.31;5071489;28;20032;-46
2022/09/10 02:26:43;;;;;;;14.88;11.15;;;;;;;22.88;60.40;99536.47;5070978;28;20056;-45
2022/09/10 02:29:11;;;;;;;13.52;11.27;;;;;;;22.93;60.64;99550.78;5070785;28;20465;-47
2022/09/10 02:31:36;;;;;;;15.45;11.25;;;;;;;22.95;60.66;99553.22;5071477;28;20028;-44
2022/09/10 02:34:02;;;;;;;14.70;11.15;;;;;;;23.00;60.46;99551.25;5053779;28;20397;-46
2022/09/10 02:36:28;;;;;;;16.02;10.48;;;;;;;22.96;60.66;99544.81;5050909;28;20036;-45
2022/09/10 02:38:55;;;;;;;17.25;11.05;;;;;;;22.90;60.58;99542.44;5050891;28;20065;-43
2022/09/10 02:41:24;;;;;;;14.18;10.90;;;;;;;22.92;60.75;99548.38;5051249;28;20036;-44
2022/09/10 02:43:50;;;;;;;16.93;11.57;;;;;;;22.96;60.55;99535.81;5050942;28;20024;-43
2022/09/10 02:46:16;;;;;;;17.63;11.88;;;;;;;22.98;60.45;99529.03;5051134;28;20032;-45
2022/09/10 02:48:41;;;;;;;16.92;12.27;;;;;;;23.03;60.29;99525.47;5050622;28;20052;-44
2022/09/10 02:51:07;;;;;;;17.33;12.63;;;;;;;22.96;60.24;99524.97;5051420;28;20028;-45
2022/09/10 02:53:33;;;;;;;21.40;12.50;;;;;;;22.76;60.99;99534.19;5050594;28;20519;-45
2022/09/10 02:55:59;;;;;;;16.27;11.93;;;;;;;22.80;60.86;99543.34;5050821;28;20033;-45
2022/09/10 02:58:25;;;;;;;14.48;11.43;;;;;;;22.73;61.40;99549.16;5050917;28;20057;-44
2022/09/10 03:00:50;;;;;;;15.30;10.90;;;;;;;22.75;61.45;99543.41;5054608;28;20055;-48
2022/09/10 03:03:16;;;;;;;15.90;11.07;;;;;;;22.77;61.42;99543.94;5070480;28;20104;-44
2022/09/10 03:05:42;;;;;;;15.70;11.70;;;;;;;22.76;61.27;99543.13;5075034;28;20148;-45
2022/09/10 03:08:08;;;;;;;14.93;11.20;;;;;;;22.84;61.07;99550.63;5075272;28;20060;-44
2022/09/10 03:10:34;;;;;;;17.90;11.68;;;;;;;22.95;60.73;99551.31;5074569;28;20473;-44
2022/09/10 03:13:00;;;;;;;16.77;11.00;;;;;;;22.93;60.77;99558.13;5074882;28;20108;-46
2022/09/10 03:15:26;;;;;;;16.42;11.32;;;;;;;22.94;60.65;99563.28;5074707;28;20024;-45
2022/09/10 03:17:52;;;;;;;17.77;11.70;;;;;;;22.92;60.67;99565.44;5074316;28;20060;-43
2022/09/10 03:20:20;;;;;;;17.77;12.10;;;;;;;22.92;60.67;99556.50;5074374;28;20101;-43
2022/09/10 03:22:46;;;;;;;19.50;12.43;;;;;;;22.94;60.68;99548.88;5074170;28;20445;-45
2022/09/10 03:25:11;;;;;;;15.48;12.27;;;;;;;22.92;60.98;99548.38;5074504;28;20024;-44
2022/09/10 03:27:37;;;;;;;19.70;12.23;;;;;;;22.98;60.58;99549.91;5074564;28;20115;-43
2022/09/10 03:30:02;;;;;;;15.38;12.45;;;;;;;22.79;61.25;99541.72;5074495;28;20024;-44
2022/09/10 03:32:28;;;;;;;16.90;12.55;;;;;;;22.66;61.56;99532.41;5069904;28;20020;-44
2022/09/10 03:34:53;;;;;;;18.08;12.30;;;;;;;22.61;61.44;99538.69;5054404;28;20028;-46
2022/09/10 03:37:19;;;;;;;16.08;12.13;;;;;;;22.53;62.03;99539.31;5054424;28;20438;-47
2022/09/10 03:39:45;;;;;;;18.48;12.63;;;;;;;22.53;62.16;99541.22;5053516;28;20147;-45
2022/09/10 03:42:11;;;;;;;19.35;12.38;;;;;;;22.57;62.06;99547.69;5053753;28;20028;-44
2022/09/10 03:44:36;;;;;;;15.65;11.55;;;;;;;22.65;61.75;99547.84;5054019;28;20104;-44
2022/09/10 03:47:02;;;;;;;19.23;12.52;;;;;;;22.54;61.99;99538.25;5054107;28;20107;-43
2022/09/10 03:49:27;;;;;;;18.90;12.90;;;;;;;22.55;62.07;99553.41;5054389;28;20025;-45
2022/09/10 03:51:53;;;;;;;16.48;12.60;;;;;;;22.58;61.89;99555.53;5054313;28;20575;-46
2022/09/10 03:54:19;;;;;;;18.10;12.77;;;;;;;22.64;62.27;99550.88;5053620;28;20033;-44
2022/09/10 03:56:45;;;;;;;16.17;11.57;;;;;;;22.57;61.97;99553.13;5054051;28;20021;-46
2022/09/10 03:59:13;;;;;;;16.33;12.38;;;;;;;22.62;61.55;99547.63;5053713;28;20055;-45
2022/09/10 04:01:39;;;;;;;20.90;12.05;;;;;;;22.65;61.54;99547.84;5056052;28;20409;-44
2022/09/10 04:04:05;;;;;;;18.35;11.75;;;;;;;22.61;61.92;99546.81;5073303;28;20465;-44
2022/09/10 04:06:33;;;;;;;17.33;12.18;;;;;;;22.62;61.82;99545.72;5073465;28;20036;-43
2022/09/10 04:09:00;;;;;;;21.65;12.70;;;;;;;22.64;61.49;99548.97;5073353;28;20484;-46
2022/09/10 04:11:26;;;;;;;23.02;12.10;;;;;;;22.71;61.49;99548.59;5072788;28;20024;-42
2022/09/10 04:13:52;;;;;;;21.63;12.98;;;;;;;22.93;60.75;99550.00;5072830;28;20020;-42
2022/09/10 04:16:18;;;;;;;19.30;13.07;;;;;;;22.99;60.40;99541.47;5073802;28;20552;-43
2022/09/10 04:18:44;;;;;;;17.50;11.63;;;;;;;22.98;60.28;99544.47;5073526;28;20131;-43
2022/09/10 04:21:11;;;;;;;16.55;11.70;;;;;;;23.01;60.06;99539.28;5073499;28;20119;-44
2022/09/10 04:23:40;;;;;;;17.13;11.48;;;;;;;23.05;59.84;99547.69;5073337;28;20046;-44
2022/09/10 04:26:17;;;;;;;16.85;11.45;;;;;;;23.15;59.84;99550.28;5072983;28;20032;-42
2022/09/10 04:28:43;;;;;;;12.57;10.63;;;;;;;23.16;59.77;99553.81;5073140;28;20496;-44
2022/09/10 04:31:09;;;;;;;15.02;11.35;;;;;;;23.33;59.31;99562.25;5073217;28;20480;-42
2022/09/10 04:33:34;;;;;;;13.20;11.05;;;;;;;23.49;59.15;99559.31;5059181;28;20033;-43
2022/09/10 04:36:00;;;;;;;16.48;10.82;;;;;;;23.54;59.35;99565.47;5052655;28;20104;-43
2022/09/10 04:38:29;;;;;;;18.42;11.25;;;;;;;23.78;58.74;99567.31;5053105;28;20087;-44
2022/09/10 04:40:56;;;;;;;16.10;11.73;;;;;;;24.06;57.62;99545.69;5052784;28;20543;-43
2022/09/10 04:43:24;;;;;;;14.98;11.68;;;;;;;24.31;56.71;99544.44;5052837;28;20361;-43
2022/09/10 04:45:50;;;;;;;17.25;11.52;;;;;;;24.49;55.82;99538.13;5052135;28;20362;-45
2022/09/10 04:48:16;;;;;;;17.10;11.55;;;;;;;24.38;56.04;99537.50;5052671;28;20494;-45
2022/09/10 04:50:41;;;;;;;14.38;10.65;;;;;;;24.56;56.10;99532.28;5052783;28;20037;-45
2022/09/10 04:53:07;;;;;;;19.42;10.75;;;;;;;24.57;56.36;99528.47;5052387;28;20407;-44
2022/09/10 04:55:33;;;;;;;18.50;11.40;;;;;;;24.73;55.61;99526.25;5052765;28;20030;-42
2022/09/10 04:57:58;;;;;;;18.52;11.32;;;;;;;25.04;54.74;99528.38;5051952;28;20033;-45
2022/09/10 05:00:25;;;;;;;17.17;10.93;;;;;;;25.41;54.30;99540.09;5052607;28;20052;-44
2022/09/10 05:02:51;;;;;;;18.58;10.77;;;;;;;25.77;53.10;99542.00;5064404;28;20449;-43
2022/09/10 05:05:17;;;;;;;17.23;10.25;;;;;;;26.11;52.43;99550.41;5072320;28;20063;-45
2022/09/10 05:07:42;;;;;;;13.80;10.20;;;;;;;26.30;51.66;99542.03;5072017;28;20059;-42
2022/09/10 05:10:09;;;;;;;15.93;10.50;;;;;;;26.49;50.57;99543.72;5072462;28;20093;-45
2022/09/10 05:12:35;;;;;;;24.55;13.50;;;;;;;26.82;49.92;99560.56;5071865;28;20504;-45
2022/09/10 05:15:02;;;;;;;16.75;10.82;;;;;;;27.02;49.32;99561.13;5071370;28;20071;-44
2022/09/10 05:17:28;;;;;;;14.32;9.48;;;;;;;26.96;48.72;99559.63;5034318;28;20060;-46
2022/09/10 05:19:53;;;;;;;15.93;8.95;;;;;;;26.77;49.40;99548.97;5032088;28;20025;-43
2022/09/10 05:22:20;;;;;;;13.55;9.45;;;;;;;27.18;47.52;99545.88;5037024;28;20041;-45
2022/09/10 05:24:46;;;;;;;12.43;7.68;;;;;;;27.06;47.04;99540.25;5051540;28;20089;-45
2022/09/10 05:27:11;;;;;;;11.20;7.00;;;;;;;27.40;45.34;99557.84;5050509;28;20028;-45
2022/09/10 05:29:36;;;;;;;13.98;7.32;;;;;;;27.44;45.15;99547.88;5050251;28;20021;-43
2022/09/10 05:32:02;;;;;;;10.35;6.95;;;;;;;27.68;44.72;99548.19;5050635;28;20025;-44
2022/09/10 05:34:27;;;;;;;14.35;8.63;;;;;;;27.36;45.24;99541.28;5050568;28;20021;-44
2022/09/10 05:36:55;;;;;;;13.63;9.20;;;;;;;26.85;46.18;99551.75;5050906;28;20100;-44
2022/09/10 05:39:20;;;;;;;31.63;19.15;;;;;;;26.40;48.13;99554.59;5050489;28;20519;-44
2022/09/10 05:41:46;;;;;;;20.98;9.23;;;;;;;26.89;47.32;99544.53;5050726;28;20021;-44
2022/09/10 05:44:12;;;;;;;14.50;8.70;;;;;;;26.94;46.03;99538.13;5050970;28;20031;-44
2022/09/10 05:46:37;;;;;;;15.27;7.80;;;;;;;27.17;45.56;99548.91;5051340;28;20112;-42
2022/09/10 05:49:02;;;;;;;13.65;7.55;;;;;;;27.57;44.95;99555.09;5051572;28;20027;-43
2022/09/10 05:51:29;;;;;;;12.55;6.55;;;;;;;27.78;43.88;99559.88;5051229;28;20112;-44
2022/09/10 05:53:56;;;;;;;11.50;7.38;;;;;;;28.59;42.48;99559.09;5051370;28;20024;-45
2022/09/10 05:56:22;;;;;;;17.55;7.38;;;;;;;27.83;43.05;99559.72;5050683;28;20036;-44
2022/09/10 05:58:48;;;;;;;13.05;7.22;;;;;;;27.58;44.38;99553.16;5050830;28;20025;-45
2022/09/10 06:01:14;;;;;;;13.25;7.03;;;;;;;27.78;44.05;99557.16;5048488;28;20021;-43
2022/09/10 06:03:39;;;;;;;11.15;7.10;;;;;;;28.01;43.26;99555.88;5055771;28;20035;-43
2022/09/10 06:06:05;;;;;;;11.57;7.07;;;;;;;28.16;42.96;99560.03;5046496;28;20035;-45
2022/09/10 06:08:31;;;;;;;12.82;7.00;;;;;;;28.28;42.75;99564.84;5046904;28;20128;-43
2022/09/10 06:10:59;;;;;;;17.42;7.70;;;;;;;28.55;42.30;99557.38;5040096;28;20532;-44
2022/09/10 06:13:25;;;;;;;23.52;10.63;;;;;;;28.83;41.22;99549.50;5037407;28;20035;-45
2022/09/10 06:15:51;;;;;;;14.00;8.13;;;;;;;28.91;41.18;99547.84;5030418;28;20540;-44
2022/09/10 06:18:16;;;;;;;19.02;8.30;;;;;;;29.24;40.87;99551.56;5029768;28;20053;-46
2022/09/10 06:20:42;;;;;;;11.05;7.40;;;;;;;30.15;39.37;99544.63;5030097;28;20039;-45
2022/09/10 06:23:07;;;;;;;11.63;8.38;;;;;;;29.44;40.53;99549.13;5028820;28;20026;-45
2022/09/10 06:25:32;;;;;;;11.68;7.07;;;;;;;28.98;41.17;99545.41;5029577;28;20071;-47
2022/09/10 06:27:58;;;;;;;12.38;7.15;;;;;;;28.45;42.34;99544.81;5028642;28;20025;-45
2022/09/10 06:30:23;;;;;;;13.75;7.05;;;;;;;28.32;42.34;99537.63;5028781;28;20098;-46
2022/09/10 06:32:49;;;;;;;14.05;6.85;;;;;;;28.23;42.75;99562.25;5028525;28;20110;-45
2022/09/10 06:35:14;;;;;;;12.55;6.90;;;;;;;28.43;42.72;99572.50;5029229;28;20454;-48
2022/09/10 06:37:40;;;;;;;14.25;7.80;;;;;;;28.69;42.10;99579.84;5029587;28;20026;-44
2022/09/10 06:40:05;;;;;;;12.25;7.38;;;;;;;28.52;42.08;99577.16;5030077;28;20467;-45
2022/09/10 06:42:31;;;;;;;12.25;7.63;;;;;;;28.44;43.05;99557.72;5029957;28;20040;-45
2022/09/10 06:44:59;;;;;;;19.50;10.30;;;;;;;28.50;42.91;99562.97;5029649;28;20025;-48
2022/09/10 06:47:25;;;;;;;13.15;9.50;;;;;;;28.15;43.76;99552.16;5030008;28;20021;-43
2022/09/10 06:49:51;;;;;;;17.30;8.40;;;;;;;27.96;44.11;99550.59;5030396;28;20099;-44
2022/09/10 06:52:16;;;;;;;15.93;9.57;;;;;;;27.78;44.50;99538.84;5029342;28;20021;-47
2022/09/10 06:54:42;;;;;;;13.57;9.65;;;;;;;27.68;44.94;99547.34;5029467;28;20529;-44
2022/09/10 06:57:07;;;;;;;19.02;9.35;;;;;;;27.81;44.54;99556.53;5030088;28;20063;-44
2022/09/10 06:59:33;;;;;;;15.88;10.00;;;;;;;28.08;44.14;99556.19;5043165;28;20021;-43
2022/09/10 07:01:59;;;;;;;17.30;9.77;;;;;;;28.34;43.72;99552.56;5054868;28;20391;-42
2022/09/10 07:04:24;;;;;;;12.32;8.18;;;;;;;28.68;42.79;99552.81;5050082;28;20032;-43
2022/09/10 07:06:50;;;;;;;15.90;7.75;;;;;;;28.31;43.19;99539.56;5049951;28;20025;-43
2022/09/10 07:09:15;;;;;;;14.52;7.55;;;;;;;28.12;43.56;99541.84;5049378;28;20021;-44
2022/09/10 07:11:41;;;;;;;13.13;8.00;;;;;;;28.21;43.37;99537.16;5050126;28;20025;-43
2022/09/10 07:14:11;;;;;;;11.77;7.80;;;;;;;28.95;41.76;99543.31;5049574;28;20016;-43
2022/09/10 07:16:40;;;;;;;11.00;7.60;;;;;;;29.13;41.75;99542.13;5049246;28;20033;-44
2022/09/10 07:19:06;;;;;;;9.70;7.70;;;;;;;28.73;41.81;99552.59;5050196;28;20049;-47
2022/09/10 07:21:36;;;;;;;13.70;7.57;;;;;;;28.88;42.33;99562.19;5049238;28;20108;-43
2022/09/10 07:24:03;;;;;;;10.20;7.03;;;;;;;29.29;41.69;99560.69;5049236;28;20063;-46
2022/09/10 07:26:29;;;;;;;13.95;7.57;;;;;;;29.67;40.49;99570.72;5049057;28;20025;-45
2022/09/10 07:28:56;;;;;;;13.35;7.18;;;;;;;30.20;39.49;99580.88;5049311;28;20028;-45
2022/09/10 07:31:26;;;;;;;16.73;9.32;;;;;;;30.37;39.37;99582.66;5049153;28;20037;-44
2022/09/10 07:33:53;;;;;;;15.90;7.45;;;;;;;30.79;38.75;99595.41;5049310;28;20029;-44
2022/09/10 07:36:19;;;;;;;12.70;7.13;;;;;;;31.06;38.33;99585.69;5048874;28;20032;-45
2022/09/10 07:38:45;;;;;;;13.40;6.88;;;;;;;31.14;38.12;99583.97;5049418;28;20057;-47
2022/09/10 07:41:12;;;;;;;9.40;7.65;;;;;;;31.28;37.04;99578.09;5049511;28;20025;-45
2022/09/10 07:43:42;;;;;;;12.50;6.90;;;;;;;30.82;37.86;99560.97;5049334;28;20021;-43
2022/09/10 07:46:20;;;;;;;11.85;6.95;;;;;;;30.90;38.13;99552.66;5052265;28;20505;-44
2022/09/10 07:48:57;;;;;;;11.13;6.50;;;;;;;30.50;38.23;99555.22;5052773;28;20044;-43
2022/09/10 07:51:24;;;;;;;9.85;7.10;;;;;;;30.49;38.42;99550.88;5053246;28;20032;-44
2022/09/10 07:53:54;;;;;;;12.13;6.90;;;;;;;30.55;38.87;99535.78;5053011;28;20048;-42
2022/09/10 07:56:22;;;;;;;10.02;6.63;;;;;;;31.16;37.60;99538.50;5053107;28;20021;-45
2022/09/10 07:58:47;;;;;;;11.88;6.90;;;;;;;31.50;37.45;99528.13;5053163;28;20078;-45
2022/09/10 08:01:13;;;;;;;12.27;6.97;;;;;;;31.99;36.34;99538.13;5052928;28;20060;-44
2022/09/10 08:03:39;;;;;;;11.52;6.70;;;;;;;31.58;36.75;99536.59;5058678;28;20036;-45
2022/09/10 08:06:06;;;;;;;10.68;6.60;;;;;;;31.18;37.02;99527.97;5052578;28;20017;-44
2022/09/10 08:08:34;;;;;;;10.63;6.43;;;;;;;31.28;37.24;99531.38;5052924;28;20063;-44
2022/09/10 08:11:19;;;;;;;11.65;6.57;;;;;;;31.25;37.31;99538.38;5052783;28;20108;-44
2022/09/10 08:13:50;;;;;;;13.52;6.28;;;;;;;31.36;37.44;99546.97;5052368;28;20508;-47
2022/09/10 08:16:18;;;;;;;9.52;7.28;;;;;;;31.31;37.36;99547.19;5052723;28;20020;-45
2022/09/10 08:18:44;;;;;;;13.93;9.32;;;;;;;31.37;37.60;99556.78;5052417;28;20095;-43
2022/09/10 08:21:10;;;;;;;14.02;6.90;;;;;;;31.44;37.47;99547.97;5052509;28;20040;-43
2022/09/10 08:23:38;;;;;;;11.75;6.45;;;;;;;31.77;36.91;99547.72;5051095;28;20037;-43
2022/09/10 08:26:05;;;;;;;9.32;6.53;;;;;;;32.12;36.34;99547.13;5052217;28;20547;-45
2022/09/10 08:28:31;;;;;;;10.18;6.70;;;;;;;32.12;36.00;99550.69;5052055;28;20037;-44
2022/09/10 08:30:57;;;;;;;9.77;6.07;;;;;;;32.01;36.22;99551.53;5052283;28;20366;-44
2022/09/10 08:33:23;;;;;;;11.32;6.18;;;;;;;32.16;36.10;99556.28;5052040;28;20087;-43
2022/09/10 08:35:57;;;;;;;8.18;6.00;;;;;;;32.04;36.17;99550.84;5052163;28;20028;-46
2022/09/10 08:38:30;;;;;;;6.43;5.72;;;;;;;31.97;36.24;99551.44;5052209;28;20036;-43
2022/09/10 08:40:58;;;;;;;12.02;6.20;;;;;;;31.90;36.37;99557.53;5052277;28;20036;-43
2022/09/10 08:43:48;;;;;;;9.37;6.17;;;;;;;32.13;35.85;99557.78;5052079;28;20033;-47
2022/09/10 08:46:27;;;;;;;10.82;5.60;;;;;;;32.25;35.87;99556.94;5052167;28;20028;-43
2022/09/10 08:49:20;;;;;;;8.18;5.82;;;;;;;32.50;35.90;99552.03;5051799;28;20032;-45
2022/09/10 08:51:53;;;;;;;11.15;6.55;;;;;;;32.51;35.02;99539.06;5051864;28;20056;-44
2022/09/10 08:54:26;;;;;;;8.50;6.00;;;;;;;32.40;34.86;99511.25;5051827;28;20033;-44
2022/09/10 08:56:57;;;;;;;8.45;6.35;;;;;;;32.26;35.26;99503.47;5050651;28;20131;-45
2022/09/10 08:59:39;;;;;;;11.70;6.45;;;;;;;32.42;36.09;99516.41;5052163;28;20020;-47
2022/09/10 09:02:27;;;;;;;8.25;5.95;;;;;;;32.68;35.42;99516.69;5056197;28;20023;-44
2022/09/10 09:04:58;;;;;;;9.18;6.45;;;;;;;32.39;35.70;99519.91;5051828;28;20052;-44
2022/09/10 09:07:30;;;;;;;9.95;6.68;;;;;;;32.10;35.53;99510.91;5051863;28;20043;-45
2022/09/10 09:09:55;;;;;;;44.40;33.33;;;;;;;32.12;36.01;99503.09;5052279;28;20086;-47
2022/09/10 09:13:00;;;;;;;10.75;6.25;;;;;;;32.37;35.98;99500.16;5051864;28;20455;-43
2022/09/10 09:15:45;;;;;;;10.25;6.47;;;;;;;32.39;35.82;99500.63;5047218;28;20067;-43
2022/09/10 09:18:53;;;;;;;7.72;6.50;;;;;;;32.86;34.99;99497.00;5051743;28;20072;-43
2022/09/10 09:21:53;;;;;;;8.80;6.18;;;;;;;32.41;34.89;99479.84;5050829;28;20032;-43
2022/09/10 09:24:43;;;;;;;9.32;6.03;;;;;;;32.34;35.32;99483.19;5048335;28;20037;-43
2022/09/10 09:27:16;;;;;;;11.00;6.25;;;;;;;32.02;36.06;99478.84;5051640;28;20033;-45
2022/09/10 09:29:44;;;;;;;9.65;6.20;;;;;;;31.88;36.19;99471.81;5051515;28;20067;-42
2022/09/10 09:32:15;;;;;;;11.27;6.32;;;;;;;31.71;36.74;99472.16;5051424;28;20108;-44
2022/09/10 09:35:05;;;;;;;8.35;6.13;;;;;;;31.99;36.18;99463.03;5050982;28;20073;-45
2022/09/10 09:37:32;;;;;;;;;;;;;;;31.97;36.20;99457.91;5051774;28;20021;-44
2022/09/10 09:40:04;;;;;;;13.10;6.50;;;;;;;32.26;35.92;99442.13;5051402;28;19909;-44
2022/09/10 09:42:44;;;;;;;48.85;39.60;;;;;;;32.03;35.89;99447.44;5051520;28;20028;-45
2022/09/10 09:45:16;;;;;;;12.52;6.53;;;;;;;31.53;36.74;99441.44;5050880;28;20139;-46
2022/09/10 09:47:44;;;;;;;9.70;6.45;;;;;;;31.49;36.43;99443.25;5051279;28;20074;-46
2022/09/10 09:50:11;;;;;;;9.00;7.18;;;;;;;31.26;36.63;99432.78;5050945;28;20029;-43
2022/09/10 09:52:40;;;;;;;10.45;6.70;;;;;;;31.31;37.14;99424.31;5050761;28;20028;-43
2022/09/10 09:55:19;;;;;;;10.52;6.65;;;;;;;31.72;36.92;99424.22;5050903;28;20093;-43
2022/09/10 09:57:46;;;;;;;16.23;6.82;;;;;;;32.06;36.29;99421.97;5051005;28;20408;-44
2022/09/10 10:00:40;;;;;;;10.73;6.40;;;;;;;32.15;35.27;99412.38;5050880;28;20036;-45
2022/09/10 10:03:17;;;;;;;15.20;7.45;;;;;;;31.81;35.94;99413.06;5047981;28;20043;-45
2022/09/10 10:05:42;;;;;;;9.98;6.38;;;;;;;31.63;35.89;99401.63;5050519;28;20461;-48
2022/09/10 10:08:27;;;;;;;11.30;6.85;;;;;;;31.80;35.60;99401.28;5050478;28;20060;-44
2022/09/10 10:10:53;;;;;;;11.05;6.95;;;;;;;31.69;35.66;99389.19;5050963;28;20096;-43
2022/09/10 10:13:22;;;;;;;10.65;6.60;;;;;;;31.96;35.79;99396.53;5050838;28;20400;-43
2022/09/10 10:15:49;;;;;;;10.27;6.10;;;;;;;32.13;34.88;99389.91;5050803;28;20352;-45
2022/09/10 10:18:20;;;;;;;11.93;6.85;;;;;;;32.26;34.75;99395.31;5050049;28;20432;-45
2022/09/10 10:20:46;;;;;;;10.82;7.07;;;;;;;32.47;35.11;99393.03;5050524;28;20032;-45
2022/09/10 10:23:32;;;;;;;8.32;5.88;;;;;;;32.47;34.56;99392.25;5050073;28;20028;-45
2022/09/10 10:26:27;;;;;;;10.10;6.13;;;;;;;32.41;34.70;99379.94;5050052;28;20443;-43
2022/09/10 10:29:00;;;;;;;11.40;6.13;;;;;;;32.37;34.90;99379.03;5049750;28;20041;-45
2022/09/10 10:31:41;;;;;;;11.82;6.13;;;;;;;32.21;34.78;99379.06;5050281;28;20021;-42
2022/09/10 10:34:13;;;;;;;9.98;6.05;;;;;;;31.74;35.69;99369.69;5050083;28;20079;-44
2022/09/10 10:37:08;;;;;;;8.40;6.15;;;;;;;31.93;35.15;99369.75;5050393;28;20415;-43
2022/09/10 10:39:39;;;;;;;10.10;6.65;;;;;;;32.28;34.79;99365.47;5049903;28;20119;-43
2022/09/10 10:42:29;;;;;;;9.73;6.07;;;;;;;32.44;34.28;99348.91;5050298;28;20033;-44
2022/09/10 10:45:10;;;;;;;11.27;6.32;;;;;;;32.37;34.78;99340.50;5050347;28;20044;-44
2022/09/10 10:47:42;;;;;;;8.75;6.07;;;;;;;32.91;33.62;99337.72;5050415;28;20024;-44
2022/09/10 10:50:43;;;;;;;9.75;6.55;;;;;;;33.18;33.33;99331.56;5049465;28;20028;-47
2022/09/10 10:53:21;;;;;;;9.90;7.05;;;;;;;33.34;33.23;99334.19;5050093;28;20066;-44
2022/09/10 10:56:06;;;;;;;12.55;6.70;;;;;;;33.42;32.84;99336.72;5049587;28;20397;-44
2022/09/10 10:58:56;;;;;;;7.68;5.80;;;;;;;33.53;33.16;99327.84;5049713;28;20040;-44
2022/09/10 11:01:28;;;;;;;12.10;8.65;;;;;;;33.76;33.03;99336.94;5050556;28;20105;-43
2022/09/10 11:04:12;;;;;;;10.18;7.05;;;;;;;33.80;33.05;99321.25;5055264;28;20020;-45
2022/09/10 11:06:44;;;;;;;15.95;6.00;;;;;;;33.32;33.35;99309.78;5049924;28;20029;-44
2022/09/10 11:09:17;;;;;;;9.68;6.00;;;;;;;32.98;33.84;99309.53;5050055;28;20032;-47
2022/09/10 11:12:02;;;;;;;15.93;10.95;;;;;;;33.03;33.18;99311.97;5049409;28;20103;-46
2022/09/10 11:14:36;;;;;;;13.10;9.18;;;;;;;32.90;33.41;99314.09;5049940;28;20036;-43
2022/09/10 11:17:14;;;;;;;15.68;12.32;;;;;;;33.07;33.52;99315.59;5049895;28;20057;-46
2022/09/10 11:19:46;;;;;;;10.10;5.72;;;;;;;32.79;33.96;99313.09;5050594;28;20044;-46
2022/09/10 11:22:47;;;;;;;9.63;5.47;;;;;;;32.59;33.90;99300.50;5053472;28;20090;-45
2022/09/10 11:25:23;;;;;;;11.02;5.55;;;;;;;32.82;33.99;99303.31;5018843;28;20190;-45
2022/09/10 11:28:16;;;;;;;12.15;7.90;;;;;;;32.86;33.76;99299.47;5053738;28;20068;-44
2022/09/10 11:30:45;;;;;;;9.43;6.00;;;;;;;32.90;33.69;99300.34;5052345;28;20029;-45
2022/09/10 11:33:34;;;;;;;8.63;5.93;;;;;;;32.98;33.33;99297.72;5053194;28;20032;-44
2022/09/10 11:36:25;;;;;;;8.50;5.78;;;;;;;33.06;33.50;99282.91;5053352;28;20056;-45
2022/09/10 11:39:09;;;;;;;9.02;5.60;;;;;;;33.13;33.77;99279.50;5033887;28;20022;-45
2022/09/10 11:41:41;;;;;;;9.60;5.57;;;;;;;33.32;33.10;99273.94;5033631;28;20064;-45